Terminal Aerodrome Forecast
Issued by NWS Newport/Morehead City, NC

Home | Current Version | Previous Version | Text Only | Print | Product List | Glossary On
Versions: 1 2 3 4 5 6 7 8 9 10 11 12 13 14 15 16 17 18
267
FTUS42 KMHX 302338
TAFEWN
TAF
KEWN 302338Z 0100/0124 19008KT P6SM FEW250
     FM010700 19008KT P6SM FEW006 SCT045
      TEMPO 0108/0112 OVC015
     FM011400 20013G21KT P6SM SCT070=

USA.gov is the U.S. government's official web portal to all federal, state and local government web resources and services.